createdAt,value
2022-12-17T00:02:37.640Z,-4.41
2022-12-17T00:07:57.726Z,-4.42
2022-12-17T00:13:17.847Z,-4.45
2022-12-17T00:18:38.318Z,-4.53
2022-12-17T00:23:58.151Z,-4.56
2022-12-17T00:29:18.427Z,-4.57
2022-12-17T00:34:38.281Z,-4.67
2022-12-17T00:39:59.503Z,-4.70
2022-12-17T00:45:19.623Z,-4.72
2022-12-17T00:50:39.766Z,-4.74
2022-12-17T00:56:00.808Z,-4.77
2022-12-17T01:01:20.926Z,-4.80
2022-12-17T01:06:41.055Z,-4.88
2022-12-17T01:12:00.967Z,-4.89
2022-12-17T01:17:21.109Z,-4.87
2022-12-17T01:22:41.171Z,-4.90
2022-12-17T01:28:01.054Z,-4.98
2022-12-17T01:33:22.717Z,-5.07
2022-12-17T01:38:42.765Z,-5.01
2022-12-17T01:44:02.835Z,-5.00
2022-12-17T01:49:23.219Z,-4.99
2022-12-17T01:54:43.612Z,-5.02
2022-12-17T02:00:09.676Z,-5.08
2022-12-17T02:05:30.222Z,-5.12
2022-12-17T02:10:56.596Z,-5.12
2022-12-17T02:16:28.027Z,-5.12
2022-12-17T02:21:50.855Z,-5.08
2022-12-17T02:27:14.119Z,-5.09
2022-12-17T02:32:36.748Z,-5.12
2022-12-17T02:37:56.964Z,-5.12
2022-12-17T02:43:17.832Z,-5.11
2022-12-17T02:48:38.278Z,-5.14
2022-12-17T02:54:03.687Z,-5.15
2022-12-17T02:59:23.754Z,-5.24
2022-12-17T03:04:43.690Z,-5.34
2022-12-17T03:10:03.533Z,-5.30
2022-12-17T03:15:23.930Z,-5.29
2022-12-17T03:20:43.734Z,-5.28
2022-12-17T03:26:03.965Z,-5.30
2022-12-17T03:31:24.252Z,-5.32
2022-12-17T03:36:44.719Z,-5.35
2022-12-17T03:42:05.047Z,-5.36
2022-12-17T03:47:25.161Z,-5.39
2022-12-17T03:52:44.987Z,-5.42
2022-12-17T03:58:04.931Z,-5.45
2022-12-17T04:03:24.919Z,-5.50
2022-12-17T04:08:45.257Z,-5.56
2022-12-17T04:14:05.438Z,-5.58
2022-12-17T04:19:25.360Z,-5.61
2022-12-17T04:24:45.220Z,-5.63
2022-12-17T04:30:05.003Z,-5.63
2022-12-17T04:35:25.112Z,-5.69
2022-12-17T04:40:45.521Z,-5.69
2022-12-17T04:46:08.413Z,-5.74
2022-12-17T04:51:28.481Z,-5.81
2022-12-17T04:56:48.574Z,-5.78
2022-12-17T05:02:08.855Z,-5.82
2022-12-17T05:07:28.969Z,-5.83
2022-12-17T05:12:48.955Z,-5.80
2022-12-17T05:18:19.333Z,-5.78
2022-12-17T05:23:39.431Z,-5.81
2022-12-17T05:28:59.666Z,-5.84
2022-12-17T05:34:19.533Z,-5.83
2022-12-17T05:39:39.558Z,-5.80
2022-12-17T05:44:59.449Z,-5.78
2022-12-17T05:50:19.788Z,-5.67
2022-12-17T05:55:39.688Z,-5.52
2022-12-17T06:00:59.678Z,-5.42
2022-12-17T06:06:19.497Z,-5.28
2022-12-17T06:11:39.669Z,-5.09
2022-12-17T06:16:59.742Z,-4.90
2022-12-17T06:22:20.357Z,-4.71
2022-12-17T06:27:40.300Z,-4.63
2022-12-17T06:33:00.880Z,-4.48
2022-12-17T06:38:24.032Z,-4.41
2022-12-17T06:43:43.943Z,-4.22
2022-12-17T06:49:03.740Z,-4.10
2022-12-17T06:54:23.562Z,-3.98
2022-12-17T06:59:43.632Z,-3.91
2022-12-17T07:05:03.841Z,-3.83
2022-12-17T07:10:24.184Z,-3.71
2022-12-17T07:15:44.142Z,-3.65
2022-12-17T07:21:05.001Z,-3.50
2022-12-17T07:26:25.149Z,-3.45
2022-12-17T07:31:44.979Z,-3.41
2022-12-17T07:37:04.991Z,-3.36
2022-12-17T07:42:24.834Z,-3.28
2022-12-17T07:47:45.090Z,-3.30
2022-12-17T07:53:05.121Z,-3.33
2022-12-17T07:58:29.199Z,-3.27
2022-12-17T08:03:49.065Z,-3.20
2022-12-17T08:09:09.194Z,-3.10
2022-12-17T08:14:29.359Z,-3.04
2022-12-17T08:19:49.233Z,-2.91
2022-12-17T08:25:09.099Z,-3.02
2022-12-17T08:30:29.582Z,-3.01
2022-12-17T08:35:49.606Z,-2.88
2022-12-17T08:41:09.913Z,-2.75
2022-12-17T08:46:29.724Z,-2.77
2022-12-17T08:51:49.710Z,-2.76
2022-12-17T08:57:09.561Z,-2.65
2022-12-17T09:02:29.759Z,-2.61
2022-12-17T09:07:50.041Z,-2.70
2022-12-17T09:13:09.985Z,-2.48
2022-12-17T09:18:29.916Z,-2.34
2022-12-17T09:23:50.087Z,-2.24
2022-12-17T09:29:10.248Z,-2.17
2022-12-17T09:34:30.810Z,-2.00
2022-12-17T09:39:50.717Z,-1.92
2022-12-17T09:45:27.338Z,-2.09
2022-12-17T09:50:47.722Z,-2.12
2022-12-17T09:56:11.906Z,-2.04
2022-12-17T10:01:54.762Z,-1.82
2022-12-17T10:07:14.537Z,-1.85
2022-12-17T10:23:19.658Z,-1.65
2022-12-17T10:28:43.693Z,-1.47
2022-12-17T10:34:05.033Z,-1.37
2022-12-17T10:39:26.076Z,-1.43
2022-12-17T10:44:53.317Z,-1.37
2022-12-17T10:50:17.875Z,-1.40
2022-12-17T10:55:46.947Z,-1.36
2022-12-17T11:01:07.882Z,-1.30
2022-12-17T11:06:29.400Z,-1.12
2022-12-17T11:11:50.346Z,-1.08
2022-12-17T11:17:13.719Z,-1.27
2022-12-17T11:22:53.439Z,-1.17
2022-12-17T11:28:23.932Z,-1.00
2022-12-17T11:34:11.179Z,-0.91
2022-12-17T11:39:39.990Z,-1.19
2022-12-17T11:45:12.347Z,-1.43
2022-12-17T11:50:41.877Z,-1.36
2022-12-17T11:56:14.960Z,-1.17
2022-12-17T12:01:55.697Z,-1.06
2022-12-17T12:07:28.319Z,-0.92
2022-12-17T12:13:09.104Z,-0.78
2022-12-17T12:18:37.528Z,-0.78
2022-12-17T12:24:17.413Z,-1.01
2022-12-17T12:29:46.806Z,-0.81
2022-12-17T12:35:07.630Z,-0.77
2022-12-17T12:40:43.916Z,-0.85
2022-12-17T12:46:14.156Z,-0.87
2022-12-17T12:51:46.602Z,-1.11
2022-12-17T12:57:06.593Z,-1.31
2022-12-17T13:02:39.341Z,-1.25
2022-12-17T13:07:40.860Z,-1.24
2022-12-17T13:12:47.218Z,-1.39
2022-12-17T13:18:37.129Z,-1.32
2022-12-17T13:23:39.256Z,-1.33
2022-12-17T13:28:41.560Z,-1.30
2022-12-17T13:34:00.442Z,-1.29
2022-12-17T13:39:24.948Z,-1.26
2022-12-17T13:44:44.172Z,-1.59
2022-12-17T13:50:24.532Z,-1.51
2022-12-17T13:55:25.533Z,-1.31
2022-12-17T14:00:30.788Z,-1.27
2022-12-17T14:05:43.860Z,-1.28
2022-12-17T14:10:51.957Z,-1.31
2022-12-17T14:15:53.501Z,-1.29
2022-12-17T14:20:56.317Z,-1.35
2022-12-17T14:25:58.388Z,-1.44
2022-12-17T14:31:26.617Z,-1.70
2022-12-17T14:36:30.161Z,-1.66
2022-12-17T14:41:56.957Z,-1.59
2022-12-17T14:47:11.524Z,-1.60
2022-12-17T14:52:14.085Z,-1.67
2022-12-17T14:57:23.004Z,-1.78
2022-12-17T15:02:27.667Z,-1.89
2022-12-17T15:07:31.846Z,-2.08
2022-12-17T15:12:33.324Z,-2.15
2022-12-17T15:17:35.875Z,-2.22
2022-12-17T15:22:38.355Z,-2.10
2022-12-17T15:27:39.826Z,-2.28
2022-12-17T15:32:41.582Z,-2.75
2022-12-17T15:37:43.069Z,-2.84
2022-12-17T15:43:06.289Z,-2.82
2022-12-17T15:48:09.422Z,-2.65
2022-12-17T15:53:11.024Z,-2.52
2022-12-17T15:58:13.864Z,-2.41
2022-12-17T16:03:15.325Z,-2.37
2022-12-17T16:08:16.917Z,-2.53
2022-12-17T16:13:18.393Z,-2.64
2022-12-17T16:18:20.005Z,-2.88
2022-12-17T16:23:21.822Z,-3.05
2022-12-17T16:28:23.371Z,-3.14
2022-12-17T16:33:24.874Z,-3.18
2022-12-17T16:38:26.666Z,-3.02
2022-12-17T16:43:32.625Z,-2.86
2022-12-17T16:48:39.290Z,-2.80
2022-12-17T16:53:41.454Z,-2.90
2022-12-17T16:58:43.167Z,-2.89
2022-12-17T17:03:44.872Z,-2.99
2022-12-17T17:08:47.304Z,-2.93
2022-12-17T17:13:50.870Z,-2.81
2022-12-17T17:18:53.754Z,-2.76
2022-12-17T17:24:01.902Z,-2.78
2022-12-17T17:29:04.637Z,-2.77
2022-12-17T17:34:10.984Z,-2.77
2022-12-17T17:39:12.700Z,-2.91
2022-12-17T17:44:17.668Z,-3.06
2022-12-17T17:49:22.369Z,-3.25
2022-12-17T17:54:24.185Z,-3.38
2022-12-17T17:59:32.813Z,-3.44
2022-12-17T18:04:38.769Z,-3.38
2022-12-17T18:09:40.579Z,-3.25
2022-12-17T18:15:05.108Z,-3.13
2022-12-17T18:20:04.495Z,-3.07
2022-12-17T18:25:06.389Z,-3.04
2022-12-17T18:30:08.557Z,-3.02
2022-12-17T18:35:10.336Z,-3.04
2022-12-17T18:40:12.191Z,-3.29
2022-12-17T18:45:14.744Z,-3.15
2022-12-17T18:50:16.304Z,-3.17
2022-12-17T18:55:18.142Z,-3.26
2022-12-17T19:00:19.755Z,-3.39
2022-12-17T19:05:43.601Z,-3.26
2022-12-17T19:11:19.927Z,-3.22
2022-12-17T19:16:24.315Z,-3.08
2022-12-17T19:21:27.418Z,-3.01
2022-12-17T19:26:46.960Z,-3.05
2022-12-17T19:31:52.378Z,-2.99
2022-12-17T19:36:54.175Z,-2.97
2022-12-17T19:41:55.991Z,-2.95
2022-12-17T19:46:58.333Z,-2.95
2022-12-17T19:52:02.819Z,-3.00
2022-12-17T19:57:09.186Z,-3.00
2022-12-17T20:02:11.570Z,-3.05
2022-12-17T20:07:13.385Z,-3.13
2022-12-17T20:12:15.027Z,-3.33
2022-12-17T20:17:16.684Z,-3.24
2022-12-17T20:22:18.321Z,-3.20
2022-12-17T20:27:19.836Z,-3.24
2022-12-17T20:32:21.600Z,-3.25
2022-12-17T20:37:23.247Z,-3.35
2022-12-17T20:42:24.778Z,-3.40
2022-12-17T20:47:26.470Z,-3.61
2022-12-17T20:52:28.343Z,-3.72
2022-12-17T20:57:30.037Z,-3.63
2022-12-17T21:02:31.758Z,-3.75
2022-12-17T21:18:25.480Z,-3.73
2022-12-17T21:23:28.037Z,-3.66
2022-12-17T21:28:29.842Z,-3.75
2022-12-17T21:33:31.966Z,-3.92
2022-12-17T21:38:33.872Z,-3.93
2022-12-17T21:43:36.858Z,-3.80
2022-12-17T21:48:42.224Z,-3.82
2022-12-17T21:53:43.939Z,-3.86
2022-12-17T21:58:46.549Z,-3.90
2022-12-17T22:03:53.725Z,-3.91
2022-12-17T22:09:00.838Z,-4.02
2022-12-17T22:14:18.747Z,-3.93
2022-12-17T22:19:23.229Z,-3.93
2022-12-17T22:24:25.058Z,-3.91
2022-12-17T22:29:46.466Z,-4.07
2022-12-17T22:35:42.442Z,-4.09
2022-12-17T22:44:33.954Z,-4.19
2022-12-17T22:45:31.655Z,-4.20
2022-12-17T22:50:35.937Z,-4.26
2022-12-17T22:55:41.289Z,-4.30
2022-12-17T23:00:43.550Z,-4.36
2022-12-17T23:05:44.906Z,-4.44
2022-12-17T23:10:46.255Z,-4.68
2022-12-17T23:15:47.672Z,-4.84
2022-12-17T23:20:49.062Z,-4.94
2022-12-17T23:25:50.473Z,-5.00
2022-12-17T23:30:51.852Z,-5.14
2022-12-17T23:36:06.110Z,-5.28
2022-12-17T23:41:14.577Z,-5.46
2022-12-17T23:46:18.361Z,-5.44
2022-12-17T23:51:21.422Z,-5.50
2022-12-17T23:56:26.028Z,-5.62
